Terminal Aerodrome Forecast
Issued by NWS Pendleton, OR

Home | Current Version | Previous Version | Text Only | Print | Product List | Glossary On
Versions: 1 2 3 4 5 6 7 8 9 10 11 12 13 14 15 16 17 18 19 20 21 22 23 24 25
032
FTUS46 KPDT 201740
TAFPDT
TAF
KPDT 201740Z 2018/2118 20011KT P6SM FEW035 SCT100
     FM202000 23018G26KT P6SM SCT100
     FM210300 22010KT P6SM BKN070
     FM211000 10007KT P6SM -RA SCT040 BKN060=

USA.gov is the U.S. government's official web portal to all federal, state and local government web resources and services.